Time,TemperatureF,DewpointF,PressureIn,WindDirection,WindDirectionDegrees,WindSpeedMPH,WindSpeedGustMPH,Humidity,HourlyPrecipIn,Conditions,Clouds,dailyrainin,SolarRadiationWatts/m^2,SoftwareType,DateUTC
2013-02-13 00:02:00,49.0,46.0,-100.00,WNW,294,2.0,8.0,91,0.00,,,0.78,0.000000,,2013-02-13 06:02:00,
2013-02-13 00:11:00,49.0,46.0,-100.00,WNW,294,2.0,8.0,91,0.00,,,0.78,0.000000,,2013-02-13 06:11:00,
2013-02-13 00:21:00,49.0,46.0,-100.00,WNW,294,2.0,8.0,91,0.00,,,0.78,0.000000,,2013-02-13 06:21:00,
2013-02-13 00:52:00,50.0,47.0,-100.00,West,268,4.0,6.0,90,0.00,,,0.78,0.000000,,2013-02-13 06:52:00,
2013-02-13 01:02:00,50.0,47.0,-100.00,West,268,4.0,6.0,90,0.00,,,0.78,0.000000,,2013-02-13 07:02:00,
2013-02-13 01:11:00,50.0,47.0,-100.00,West,268,4.0,6.0,90,0.00,,,0.78,0.000000,,2013-02-13 07:11:00,
2013-02-13 01:22:00,50.0,47.0,-100.00,West,268,4.0,6.0,90,0.00,,,0.78,0.000000,,2013-02-13 07:22:00,
2013-02-13 01:31:00,50.0,47.0,-100.00,West,268,4.0,6.0,90,0.00,,,0.78,0.000000,,2013-02-13 07:31:00,
2013-02-13 01:32:00,49.0,46.0,-100.00,WSW,247,3.0,7.0,89,0.00,,,0.78,0.000000,,2013-02-13 07:32:00,
2013-02-13 01:52:00,49.0,46.0,-100.00,WSW,247,3.0,7.0,89,0.00,,,0.78,0.000000,,2013-02-13 07:52:00,
2013-02-13 02:01:00,49.0,46.0,-100.00,WSW,247,3.0,7.0,89,0.00,,,0.78,0.000000,,2013-02-13 08:01:00,
2013-02-13 02:11:00,49.0,46.0,-100.00,WSW,247,3.0,7.0,89,0.00,,,0.78,0.000000,,2013-02-13 08:11:00,
2013-02-13 02:21:00,49.0,46.0,-100.00,WSW,247,3.0,7.0,89,0.00,,,0.78,0.000000,,2013-02-13 08:21:00,
2013-02-13 02:52:00,49.0,46.0,-100.00,WSW,247,4.0,9.0,89,0.00,,,0.78,0.000000,,2013-02-13 08:52:00,
2013-02-13 03:01:00,49.0,46.0,-100.00,WSW,247,4.0,9.0,89,0.00,,,0.78,0.000000,,2013-02-13 09:01:00,
2013-02-13 03:11:00,49.0,46.0,-100.00,WSW,247,4.0,9.0,89,0.00,,,0.78,0.000000,,2013-02-13 09:11:00,
2013-02-13 03:21:00,49.0,46.0,-100.00,WSW,247,4.0,9.0,89,0.00,,,0.78,0.000000,,2013-02-13 09:21:00,
2013-02-13 03:31:00,49.0,46.0,-100.00,WSW,247,4.0,9.0,89,0.00,,,0.78,0.000000,,2013-02-13 09:31:00,
2013-02-13 03:32:00,50.0,46.0,-100.00,West,266,8.0,12.0,86,0.00,,,0.78,0.000000,,2013-02-13 09:32:00,
2013-02-13 03:52:00,50.0,46.0,-100.00,West,266,8.0,12.0,86,0.00,,,0.78,0.000000,,2013-02-13 09:52:00,
2013-02-13 04:01:00,50.0,46.0,-100.00,West,266,8.0,12.0,86,0.00,,,0.78,0.000000,,2013-02-13 10:01:00,
2013-02-13 04:11:00,50.0,46.0,-100.00,West,266,8.0,12.0,86,0.00,,,0.78,0.000000,,2013-02-13 10:11:00,
2013-02-13 04:21:00,50.0,46.0,-100.00,West,266,8.0,12.0,86,0.00,,,0.78,0.000000,,2013-02-13 10:21:00,
2013-02-13 04:32:00,49.0,43.0,-100.00,WNW,283,6.0,16.0,80,0.00,,,0.78,0.000000,,2013-02-13 10:32:00,
2013-02-13 04:52:00,49.0,43.0,-100.00,WNW,283,6.0,16.0,80,0.00,,,0.78,0.000000,,2013-02-13 10:52:00,
2013-02-13 05:01:00,49.0,43.0,-100.00,WNW,283,6.0,16.0,80,0.00,,,0.78,0.000000,,2013-02-13 11:01:00,
2013-02-13 05:11:00,49.0,43.0,-100.00,WNW,283,6.0,16.0,80,0.00,,,0.78,0.000000,,2013-02-13 11:11:00,
2013-02-13 05:22:00,49.0,43.0,-100.00,WNW,283,6.0,16.0,80,0.00,,,0.78,0.000000,,2013-02-13 11:22:00,
2013-02-13 05:32:00,47.0,38.0,-100.00,WNW,299,3.0,17.0,72,0.00,,,0.77,0.000000,,2013-02-13 11:32:00,
2013-02-13 05:52:00,47.0,38.0,-100.00,WNW,299,3.0,17.0,72,0.00,,,0.77,0.000000,,2013-02-13 11:52:00,
2013-02-13 06:02:00,47.0,38.0,-100.00,WNW,299,3.0,17.0,72,0.00,,,0.77,0.000000,,2013-02-13 12:02:00,
2013-02-13 06:11:00,47.0,38.0,-100.00,WNW,299,3.0,17.0,72,0.00,,,0.77,0.000000,,2013-02-13 12:11:00,
2013-02-13 06:22:00,47.0,38.0,-100.00,WNW,299,3.0,17.0,72,0.00,,,0.77,0.000000,,2013-02-13 12:22:00,
2013-02-13 06:32:00,46.0,37.0,-100.00,WNW,294,4.0,11.0,72,0.00,,,0.54,0.000000,,2013-02-13 12:32:00,
2013-02-13 06:52:00,46.0,37.0,-100.00,WNW,294,4.0,11.0,72,0.00,,,0.54,0.000000,,2013-02-13 12:52:00,
2013-02-13 07:02:00,46.0,37.0,-100.00,WNW,294,4.0,11.0,72,0.00,,,0.54,0.000000,,2013-02-13 13:02:00,
2013-02-13 07:11:00,46.0,37.0,-100.00,WNW,294,4.0,11.0,72,0.00,,,0.54,0.000000,,2013-02-13 13:11:00,
2013-02-13 07:21:00,46.0,37.0,-100.00,WNW,294,4.0,11.0,72,0.00,,,0.54,0.000000,,2013-02-13 13:21:00,
2013-02-13 07:52:00,46.0,38.0,-100.00,WNW,294,2.0,8.0,73,0.00,,,-99.99,5.000000,,2013-02-13 13:52:00,
2013-02-13 08:01:00,46.0,38.0,-100.00,WNW,294,2.0,8.0,73,0.00,,,-99.99,5.000000,,2013-02-13 14:01:00,
2013-02-13 08:11:00,46.0,38.0,-100.00,WNW,294,2.0,8.0,73,0.00,,,-99.99,5.000000,,2013-02-13 14:11:00,
2013-02-13 08:21:00,46.0,38.0,-100.00,WNW,294,2.0,8.0,73,0.00,,,-99.99,5.000000,,2013-02-13 14:21:00,
2013-02-13 08:31:00,46.0,38.0,-100.00,WNW,294,2.0,8.0,73,0.00,,,-99.99,5.000000,,2013-02-13 14:31:00,
2013-02-13 08:32:00,46.0,39.0,-100.00,WNW,287,3.0,8.0,75,0.00,,,0.35,55.000000,,2013-02-13 14:32:00,
2013-02-13 08:52:00,46.0,39.0,-100.00,WNW,287,3.0,8.0,75,0.00,,,0.35,55.000000,,2013-02-13 14:52:00,
2013-02-13 09:01:00,46.0,39.0,-100.00,WNW,287,3.0,8.0,75,0.00,,,0.35,55.000000,,2013-02-13 15:01:00,
2013-02-13 09:11:00,46.0,39.0,-100.00,WNW,287,3.0,8.0,75,0.00,,,0.35,55.000000,,2013-02-13 15:11:00,
2013-02-13 09:21:00,46.0,39.0,-100.00,WNW,287,3.0,8.0,75,0.00,,,0.35,55.000000,,2013-02-13 15:21:00,
2013-02-13 09:52:00,50.0,38.0,-100.00,NW,307,4.0,15.0,63,0.00,,,0.29,321.000000,,2013-02-13 15:52:00,
2013-02-13 10:01:00,50.0,38.0,-100.00,NW,307,4.0,15.0,63,0.00,,,0.29,321.000000,,2013-02-13 16:01:00,
2013-02-13 10:11:00,50.0,38.0,-100.00,NW,307,4.0,15.0,63,0.00,,,0.29,321.000000,,2013-02-13 16:11:00,
2013-02-13 10:21:00,50.0,38.0,-100.00,NW,307,4.0,15.0,63,0.00,,,0.29,321.000000,,2013-02-13 16:21:00,
2013-02-13 10:31:00,50.0,38.0,-100.00,NW,307,4.0,15.0,63,0.00,,,0.29,321.000000,,2013-02-13 16:31:00,
2013-02-13 10:52:00,52.0,36.0,-100.00,NNW,328,7.0,16.0,54,0.00,,,0.14,439.000000,,2013-02-13 16:52:00,
2013-02-13 11:01:00,52.0,36.0,-100.00,NNW,328,7.0,16.0,54,0.00,,,0.14,439.000000,,2013-02-13 17:01:00,
2013-02-13 11:11:00,52.0,36.0,-100.00,NNW,328,7.0,16.0,54,0.00,,,0.14,439.000000,,2013-02-13 17:11:00,
2013-02-13 11:21:00,52.0,36.0,-100.00,NNW,328,7.0,16.0,54,0.00,,,0.14,439.000000,,2013-02-13 17:21:00,
2013-02-13 11:31:00,52.0,36.0,-100.00,NNW,328,7.0,16.0,54,0.00,,,0.14,439.000000,,2013-02-13 17:31:00,
2013-02-13 11:32:00,52.0,35.0,-100.00,NNW,342,6.0,18.0,53,0.00,,,0.10,526.000000,,2013-02-13 17:32:00,
2013-02-13 11:52:00,52.0,35.0,-100.00,NNW,342,6.0,18.0,53,0.00,,,0.10,526.000000,,2013-02-13 17:52:00,
2013-02-13 12:02:00,52.0,35.0,-100.00,NNW,342,6.0,18.0,53,0.00,,,0.10,526.000000,,2013-02-13 18:02:00,
2013-02-13 12:11:00,52.0,35.0,-100.00,NNW,342,6.0,18.0,53,0.00,,,0.10,526.000000,,2013-02-13 18:11:00,
2013-02-13 12:23:00,52.0,35.0,-100.00,NNW,342,6.0,18.0,53,0.00,,,0.10,526.000000,,2013-02-13 18:23:00,
2013-02-13 12:52:00,54.0,36.0,-100.00,NNW,333,6.0,15.0,50,0.00,,,0.04,629.000000,,2013-02-13 18:52:00,
2013-02-13 13:01:00,54.0,36.0,-100.00,NNW,333,6.0,15.0,50,0.00,,,0.04,629.000000,,2013-02-13 19:01:00,
2013-02-13 13:11:00,54.0,36.0,-100.00,NNW,333,6.0,15.0,50,0.00,,,0.04,629.000000,,2013-02-13 19:11:00,
2013-02-13 13:21:00,54.0,36.0,-100.00,NNW,333,6.0,15.0,50,0.00,,,0.04,629.000000,,2013-02-13 19:21:00,
2013-02-13 13:31:00,54.0,36.0,-100.00,NNW,333,6.0,15.0,50,0.00,,,0.04,629.000000,,2013-02-13 19:31:00,
2013-02-13 13:52:00,54.0,36.0,-100.00,North,358,5.0,15.0,50,0.00,,,0.03,674.000000,,2013-02-13 19:52:00,
2013-02-13 14:02:00,54.0,36.0,-100.00,North,358,5.0,15.0,50,0.00,,,0.03,674.000000,,2013-02-13 20:02:00,
2013-02-13 14:11:00,54.0,36.0,-100.00,North,358,5.0,15.0,50,0.00,,,0.03,674.000000,,2013-02-13 20:11:00,
2013-02-13 14:21:00,54.0,36.0,-100.00,North,358,5.0,15.0,50,0.00,,,0.03,674.000000,,2013-02-13 20:21:00,
2013-02-13 14:31:00,54.0,36.0,-100.00,North,358,5.0,15.0,50,0.00,,,0.03,674.000000,,2013-02-13 20:31:00,
2013-02-13 14:52:00,57.0,37.0,-100.00,NW,308,4.0,12.0,47,0.00,,,-99.99,464.000000,,2013-02-13 20:52:00,
2013-02-13 15:01:00,57.0,37.0,-100.00,NW,308,4.0,12.0,47,0.00,,,-99.99,464.000000,,2013-02-13 21:01:00,
2013-02-13 15:11:00,57.0,37.0,-100.00,NW,308,4.0,12.0,47,0.00,,,-99.99,464.000000,,2013-02-13 21:11:00,
2013-02-13 15:21:00,57.0,37.0,-100.00,NW,308,4.0,12.0,47,0.00,,,-99.99,464.000000,,2013-02-13 21:21:00,
2013-02-13 15:31:00,57.0,37.0,-100.00,NW,308,4.0,12.0,47,0.00,,,-99.99,464.000000,,2013-02-13 21:31:00,
2013-02-13 15:52:00,54.0,34.0,-100.00,NNE,18,5.0,12.0,47,0.00,,,0.01,464.000000,,2013-02-13 21:52:00,
2013-02-13 16:02:00,54.0,34.0,-100.00,NNE,18,5.0,12.0,47,0.00,,,0.01,464.000000,,2013-02-13 22:02:00,
2013-02-13 16:11:00,54.0,34.0,-100.00,NNE,18,5.0,12.0,47,0.00,,,0.01,464.000000,,2013-02-13 22:11:00,
2013-02-13 16:21:00,54.0,34.0,-100.00,NNE,18,5.0,12.0,47,0.00,,,0.01,464.000000,,2013-02-13 22:21:00,
2013-02-13 16:31:00,54.0,34.0,-100.00,NNE,18,5.0,12.0,47,0.00,,,0.01,464.000000,,2013-02-13 22:31:00,
2013-02-13 16:32:00,55.0,35.0,-100.00,NE,39,4.0,12.0,46,0.00,,,0.01,320.000000,,2013-02-13 22:32:00,
2013-02-13 16:52:00,55.0,35.0,-100.00,NE,39,4.0,12.0,46,0.00,,,0.01,320.000000,,2013-02-13 22:52:00,
2013-02-13 17:01:00,55.0,35.0,-100.00,NE,39,4.0,12.0,46,0.00,,,0.01,320.000000,,2013-02-13 23:01:00,
2013-02-13 17:11:00,55.0,35.0,-100.00,NE,39,4.0,12.0,46,0.00,,,0.01,320.000000,,2013-02-13 23:11:00,
2013-02-13 17:21:00,55.0,35.0,-100.00,NE,39,4.0,12.0,46,0.00,,,0.01,320.000000,,2013-02-13 23:21:00,
2013-02-13 17:32:00,51.0,35.0,-100.00,NNW,344,3.0,10.0,54,0.00,,,0.01,128.000000,,2013-02-13 23:32:00,
2013-02-13 17:52:00,51.0,35.0,-100.00,NNW,344,3.0,10.0,54,0.00,,,0.01,128.000000,,2013-02-13 23:52:00,
2013-02-13 18:02:00,51.0,35.0,-100.00,NNW,344,3.0,10.0,54,0.00,,,0.01,128.000000,,2013-02-14 00:02:00,
2013-02-13 18:11:00,51.0,35.0,-100.00,NNW,344,3.0,10.0,54,0.00,,,0.01,128.000000,,2013-02-14 00:11:00,
2013-02-13 18:21:00,51.0,35.0,-100.00,NNW,344,3.0,10.0,54,0.00,,,0.01,128.000000,,2013-02-14 00:21:00,
2013-02-13 18:52:00,45.0,37.0,-100.00,NNE,23,0.0,4.0,74,0.00,,,0.01,7.000000,,2013-02-14 00:52:00,
2013-02-13 19:01:00,45.0,37.0,-100.00,NNE,23,0.0,4.0,74,0.00,,,0.01,7.000000,,2013-02-14 01:01:00,
2013-02-13 19:11:00,45.0,37.0,-100.00,NNE,23,0.0,4.0,74,0.00,,,0.01,7.000000,,2013-02-14 01:11:00,
2013-02-13 19:21:00,45.0,37.0,-100.00,NNE,23,0.0,4.0,74,0.00,,,0.01,7.000000,,2013-02-14 01:21:00,
2013-02-13 19:31:00,45.0,37.0,-100.00,NNE,23,0.0,4.0,74,0.00,,,0.01,7.000000,,2013-02-14 01:31:00,
2013-02-13 19:52:00,42.0,38.0,-100.00,WSW,238,0.0,2.0,84,0.00,,,0.01,0.000000,,2013-02-14 01:52:00,
2013-02-13 20:01:00,42.0,38.0,-100.00,WSW,238,0.0,2.0,84,0.00,,,0.01,0.000000,,2013-02-14 02:01:00,
2013-02-13 20:11:00,42.0,38.0,-100.00,WSW,238,0.0,2.0,84,0.00,,,0.01,0.000000,,2013-02-14 02:11:00,
2013-02-13 20:21:00,42.0,38.0,-100.00,WSW,238,0.0,2.0,84,0.00,,,0.01,0.000000,,2013-02-14 02:21:00,
2013-02-13 20:31:00,42.0,38.0,-100.00,WSW,238,0.0,2.0,84,0.00,,,0.01,0.000000,,2013-02-14 02:31:00,
2013-02-13 21:02:00,39.0,36.0,-100.00,SW,222,0.0,2.0,89,0.00,,,0.01,0.000000,,2013-02-14 03:02:00,
2013-02-13 21:11:00,39.0,36.0,-100.00,SW,222,0.0,2.0,89,0.00,,,0.01,0.000000,,2013-02-14 03:11:00,
2013-02-13 21:22:00,39.0,36.0,-100.00,SW,222,0.0,2.0,89,0.00,,,0.01,0.000000,,2013-02-14 03:22:00,
2013-02-13 21:31:00,39.0,36.0,-100.00,SW,222,0.0,2.0,89,0.00,,,0.01,0.000000,,2013-02-14 03:31:00,
2013-02-13 21:52:00,38.0,35.0,-100.00,South,183,0.0,0.0,90,0.00,,,0.00,0.000000,,2013-02-14 03:52:00,
2013-02-13 22:01:00,38.0,35.0,-100.00,South,183,0.0,0.0,90,0.00,,,0.00,0.000000,,2013-02-14 04:01:00,
2013-02-13 22:12:00,38.0,35.0,-100.00,South,183,0.0,0.0,90,0.00,,,0.00,0.000000,,2013-02-14 04:12:00,
2013-02-13 22:21:00,38.0,35.0,-100.00,South,183,0.0,0.0,90,0.00,,,0.00,0.000000,,2013-02-14 04:21:00,
2013-02-13 22:31:00,38.0,35.0,-100.00,South,183,0.0,0.0,90,0.00,,,0.00,0.000000,,2013-02-14 04:31:00,
2013-02-13 22:52:00,37.0,35.0,-100.00,WSW,257,0.0,0.0,91,0.00,,,0.00,0.000000,,2013-02-14 04:52:00,
2013-02-13 23:02:00,37.0,35.0,-100.00,WSW,257,0.0,0.0,91,0.00,,,0.00,0.000000,,2013-02-14 05:02:00,
2013-02-13 23:11:00,37.0,35.0,-100.00,WSW,257,0.0,0.0,91,0.00,,,0.00,0.000000,,2013-02-14 05:11:00,
2013-02-13 23:21:00,37.0,35.0,-100.00,WSW,257,0.0,0.0,91,0.00,,,0.00,0.000000,,2013-02-14 05:21:00,
2013-02-13 23:31:00,37.0,35.0,-100.00,WSW,257,0.0,0.0,91,0.00,,,0.00,0.000000,,2013-02-14 05:31:00,
2013-02-13 23:52:00,36.0,34.0,-100.00,NNE,33,0.0,4.0,91,0.00,,,0.00,0.000000,,2013-02-14 05:52:00,